AUA775 LOWW-LBSF
Flight info
| Callsign | AUA775 |
|---|---|
| Flight time | 1h 20m |
| Altitude | 35000 |
| Route | ARSIN DCT NALOX DCT NIKAB DCT BABIT DCT LULIK DCT NIVIS DCT BGD DCT RAVAK DCT NISVA |
| Aircraft | E195/M-SDE3GILORVW/S |
Departure
| Time | 2026-05-05 12:21 |
|---|---|
| Airport | Vienna International Airport (LOWW) |
Arrival
| Time | 2026-05-05 13:41 |
|---|---|
| Airport | Sofia Airport (LBSF) |
| Time | Latitude | Longitude | Altitude | Speed | Heading |
|---|---|---|---|---|---|
| 2026-05-05 11:37 | 48.11653 | 16.56446 | 596 ft | 0 kts | 206° |
| 2026-05-05 12:12 | 48.11644 | 16.56440 | 596 ft | 3 kts | 206° |
| 2026-05-05 12:12 | 48.11622 | 16.56424 | 596 ft | 3 kts | 205° |
| 2026-05-05 12:13 | 48.11598 | 16.56408 | 596 ft | 3 kts | 201° |
| 2026-05-05 12:13 | 48.11572 | 16.56394 | 596 ft | 4 kts | 200° |
| 2026-05-05 12:13 | 48.11544 | 16.56379 | 596 ft | 4 kts | 195° |
| 2026-05-05 12:13 | 48.11514 | 16.56382 | 597 ft | 4 kts | 160° |
| 2026-05-05 12:14 | 48.11488 | 16.56416 | 597 ft | 5 kts | 126° |
| 2026-05-05 12:14 | 48.11467 | 16.56480 | 598 ft | 7 kts | 116° |
| 2026-05-05 12:14 | 48.11447 | 16.56543 | 599 ft | 6 kts | 117° |
| 2026-05-05 12:14 | 48.11427 | 16.56598 | 599 ft | 5 kts | 117° |
| 2026-05-05 12:15 | 48.11410 | 16.56648 | 600 ft | 4 kts | 116° |
| 2026-05-05 12:15 | 48.11397 | 16.56690 | 600 ft | 3 kts | 114° |
| 2026-05-05 12:15 | 48.11380 | 16.56749 | 601 ft | 9 kts | 115° |
| 2026-05-05 12:15 | 48.11343 | 16.56861 | 602 ft | 15 kts | 117° |
| 2026-05-05 12:16 | 48.11290 | 16.57017 | 603 ft | 16 kts | 117° |
| 2026-05-05 12:16 | 48.11240 | 16.57175 | 605 ft | 16 kts | 115° |
| 2026-05-05 12:16 | 48.11275 | 16.57304 | 604 ft | 15 kts | 27° |
| 2026-05-05 12:16 | 48.11373 | 16.57377 | 603 ft | 16 kts | 28° |
| 2026-05-05 12:17 | 48.11478 | 16.57452 | 602 ft | 17 kts | 27° |
| 2026-05-05 12:17 | 48.11585 | 16.57538 | 601 ft | 17 kts | 26° |
| 2026-05-05 12:17 | 48.11655 | 16.57533 | 601 ft | 7 kts | 344° |
| 2026-05-05 12:17 | 48.11719 | 16.57507 | 600 ft | 12 kts | 345° |
| 2026-05-05 12:18 | 48.11823 | 16.57515 | 599 ft | 16 kts | 48° |
| 2026-05-05 12:18 | 48.11856 | 16.57670 | 599 ft | 15 kts | 79° |
| 2026-05-05 12:18 | 48.11844 | 16.57827 | 600 ft | 15 kts | 104° |
| 2026-05-05 12:18 | 48.11749 | 16.57915 | 600 ft | 28 kts | 164° |
| 2026-05-05 12:19 | 48.11344 | 16.58087 | 604 ft | 81 kts | 165° |
| 2026-05-05 12:19 | 48.10703 | 16.58358 | 609 ft | 111 kts | 166° |
| 2026-05-05 12:19 | 48.09895 | 16.58702 | 609 ft | 128 kts | 165° |
| 2026-05-05 12:19 | 48.09016 | 16.59065 | 652 ft | 130 kts | 163° |
| 2026-05-05 12:20 | 48.08083 | 16.59439 | 745 ft | 149 kts | 166° |
| 2026-05-05 12:20 | 48.07070 | 16.59839 | 1085 ft | 149 kts | 161° |
| 2026-05-05 12:20 | 48.06136 | 16.60381 | 1025 ft | 135 kts | 161° |
| 2026-05-05 12:20 | 48.05257 | 16.60839 | 1142 ft | 145 kts | 162° |
| 2026-05-05 12:21 | 48.04267 | 16.61299 | 1773 ft | 144 kts | 166° |
| 2026-05-05 12:21 | 48.03368 | 16.61671 | 2407 ft | 138 kts | 168° |
| 2026-05-05 12:21 | 48.02408 | 16.62015 | 2980 ft | 148 kts | 170° |
| 2026-05-05 12:21 | 48.01351 | 16.62337 | 3512 ft | 163 kts | 172° |
| 2026-05-05 12:22 | 48.00187 | 16.62698 | 3883 ft | 190 kts | 167° |
| 2026-05-05 12:22 | 47.98779 | 16.63237 | 4121 ft | 223 kts | 176° |
| 2026-05-05 12:22 | 47.97123 | 16.63267 | 4534 ft | 249 kts | 182° |
| 2026-05-05 12:22 | 47.95371 | 16.63193 | 5293 ft | 259 kts | 183° |
| 2026-05-05 12:23 | 47.93578 | 16.63101 | 6259 ft | 260 kts | 184° |
| 2026-05-05 12:23 | 47.91789 | 16.62998 | 7250 ft | 259 kts | 184° |
| 2026-05-05 12:23 | 47.90008 | 16.62891 | 8161 ft | 260 kts | 184° |
| 2026-05-05 12:23 | 47.88294 | 16.62787 | 8939 ft | 257 kts | 185° |
| 2026-05-05 12:24 | 47.86543 | 16.62678 | 9711 ft | 264 kts | 185° |
| 2026-05-05 12:24 | 47.84668 | 16.62562 | 10533 ft | 267 kts | 185° |
| 2026-05-05 12:24 | 47.82813 | 16.62446 | 11353 ft | 270 kts | 185° |
| 2026-05-05 12:24 | 47.80947 | 16.62330 | 12131 ft | 273 kts | 185° |
| 2026-05-05 12:25 | 47.78982 | 16.62207 | 12470 ft | 294 kts | 185° |
| 2026-05-05 12:25 | 47.76864 | 16.62079 | 12890 ft | 311 kts | 182° |
| 2026-05-05 12:25 | 47.74728 | 16.62730 | 13464 ft | 325 kts | 159° |
| 2026-05-05 12:25 | 47.72747 | 16.64100 | 14208 ft | 329 kts | 158° |
| 2026-05-05 12:26 | 47.70679 | 16.65536 | 14924 ft | 328 kts | 158° |
| 2026-05-05 12:26 | 47.68630 | 16.66969 | 15532 ft | 331 kts | 158° |
| 2026-05-05 12:26 | 47.66515 | 16.68472 | 16107 ft | 338 kts | 157° |
| 2026-05-05 12:26 | 47.64378 | 16.69980 | 16676 ft | 343 kts | 157° |
| 2026-05-05 12:27 | 47.62195 | 16.71516 | 17353 ft | 348 kts | 157° |
| 2026-05-05 12:27 | 47.60013 | 16.73048 | 18076 ft | 351 kts | 158° |
| 2026-05-05 12:27 | 47.57780 | 16.74609 | 18794 ft | 354 kts | 159° |
| 2026-05-05 12:27 | 47.55398 | 16.75449 | 19466 ft | 353 kts | 177° |
| 2026-05-05 12:28 | 47.52955 | 16.75715 | 20125 ft | 356 kts | 178° |
| 2026-05-05 12:28 | 47.50484 | 16.75958 | 20779 ft | 360 kts | 178° |
| 2026-05-05 12:28 | 47.47971 | 16.76201 | 21400 ft | 365 kts | 178° |
| 2026-05-05 12:28 | 47.45422 | 16.76447 | 22022 ft | 370 kts | 178° |
| 2026-05-05 12:29 | 47.42844 | 16.76694 | 22647 ft | 375 kts | 178° |
| 2026-05-05 12:29 | 47.40207 | 16.76948 | 23284 ft | 379 kts | 178° |
| 2026-05-05 12:29 | 47.37564 | 16.77201 | 23898 ft | 383 kts | 178° |
| 2026-05-05 12:29 | 47.34907 | 16.77455 | 24507 ft | 387 kts | 178° |
| 2026-05-05 12:30 | 47.32233 | 16.77711 | 25113 ft | 390 kts | 178° |
| 2026-05-05 12:30 | 47.29496 | 16.77973 | 25696 ft | 394 kts | 179° |
| 2026-05-05 12:30 | 47.26762 | 16.78233 | 26266 ft | 397 kts | 179° |
| 2026-05-05 12:30 | 47.23995 | 16.78497 | 26816 ft | 401 kts | 179° |
| 2026-05-05 12:31 | 47.21193 | 16.78764 | 27371 ft | 405 kts | 179° |
| 2026-05-05 12:31 | 47.18376 | 16.79032 | 27916 ft | 408 kts | 179° |
| 2026-05-05 12:31 | 47.15550 | 16.79300 | 28437 ft | 412 kts | 179° |
| 2026-05-05 12:31 | 47.12670 | 16.79573 | 28948 ft | 415 kts | 179° |
| 2026-05-05 12:32 | 47.09779 | 16.79847 | 29457 ft | 419 kts | 179° |
| 2026-05-05 12:32 | 47.06860 | 16.80124 | 29958 ft | 423 kts | 179° |
| 2026-05-05 12:32 | 47.03893 | 16.80404 | 30433 ft | 427 kts | 179° |
| 2026-05-05 12:32 | 47.00929 | 16.80684 | 30920 ft | 430 kts | 179° |
| 2026-05-05 12:33 | 46.97956 | 16.80965 | 31451 ft | 432 kts | 179° |
| 2026-05-05 12:33 | 46.94980 | 16.81369 | 31988 ft | 435 kts | 173° |
| 2026-05-05 12:33 | 46.92022 | 16.82484 | 32589 ft | 438 kts | 162° |
| 2026-05-05 12:33 | 46.89415 | 16.84199 | 33222 ft | 439 kts | 153° |
| 2026-05-05 12:34 | 46.86740 | 16.86732 | 33969 ft | 436 kts | 147° |
| 2026-05-05 12:34 | 46.84424 | 16.89527 | 34659 ft | 435 kts | 137° |
| 2026-05-05 12:34 | 46.82455 | 16.92826 | 34869 ft | 440 kts | 128° |
| 2026-05-05 12:34 | 46.80841 | 16.96659 | 34896 ft | 454 kts | 118° |
| 2026-05-05 12:35 | 46.79645 | 17.00952 | 34922 ft | 466 kts | 108° |
| 2026-05-05 12:35 | 46.78687 | 17.05497 | 34919 ft | 467 kts | 112° |
| 2026-05-05 12:35 | 46.75967 | 17.14056 | 34922 ft | 464 kts | 117° |
| 2026-05-05 12:36 | 46.73086 | 17.22445 | 34916 ft | 465 kts | 118° |
| 2026-05-05 12:36 | 46.70182 | 17.30830 | 34914 ft | 464 kts | 118° |
| 2026-05-05 12:37 | 46.67291 | 17.39150 | 34921 ft | 465 kts | 118° |
| 2026-05-05 12:37 | 46.64373 | 17.47518 | 34921 ft | 465 kts | 118° |
| 2026-05-05 12:38 | 46.61329 | 17.55734 | 34925 ft | 464 kts | 125° |
| 2026-05-05 12:38 | 46.57611 | 17.63414 | 34935 ft | 464 kts | 126° |
| 2026-05-05 12:39 | 46.53898 | 17.71038 | 34929 ft | 464 kts | 127° |
| 2026-05-05 12:39 | 46.50220 | 17.78568 | 34931 ft | 463 kts | 127° |
| 2026-05-05 12:40 | 46.46486 | 17.86195 | 34934 ft | 464 kts | 127° |
| 2026-05-05 12:40 | 46.42759 | 17.93785 | 34931 ft | 464 kts | 127° |
| 2026-05-05 12:41 | 46.39009 | 18.01401 | 34935 ft | 464 kts | 127° |
| 2026-05-05 12:41 | 46.35271 | 18.08974 | 34937 ft | 465 kts | 127° |
| 2026-05-05 12:42 | 46.31499 | 18.16593 | 34939 ft | 465 kts | 127° |
| 2026-05-05 12:42 | 46.27743 | 18.24160 | 34941 ft | 465 kts | 127° |
| 2026-05-05 12:43 | 46.23965 | 18.31752 | 34945 ft | 466 kts | 127° |
| 2026-05-05 12:43 | 46.20191 | 18.39314 | 34942 ft | 466 kts | 127° |
| 2026-05-05 12:44 | 46.16391 | 18.46908 | 34944 ft | 466 kts | 127° |
| 2026-05-05 12:44 | 46.12583 | 18.54497 | 34942 ft | 467 kts | 127° |
| 2026-05-05 12:45 | 46.08769 | 18.62079 | 34940 ft | 467 kts | 127° |
| 2026-05-05 12:45 | 46.04977 | 18.69596 | 34934 ft | 467 kts | 128° |
| 2026-05-05 12:46 | 46.01174 | 18.77112 | 34939 ft | 467 kts | 128° |
| 2026-05-05 12:46 | 45.97351 | 18.84652 | 34948 ft | 468 kts | 128° |
| 2026-05-05 12:47 | 45.93458 | 18.92138 | 34947 ft | 467 kts | 133° |
| 2026-05-05 12:47 | 45.88776 | 18.98511 | 34965 ft | 465 kts | 140° |
| 2026-05-05 12:48 | 45.84057 | 19.04563 | 34969 ft | 465 kts | 140° |
| 2026-05-05 12:48 | 45.79236 | 19.10725 | 34957 ft | 465 kts | 140° |
| 2026-05-05 12:49 | 45.74404 | 19.16885 | 34955 ft | 466 kts | 140° |
| 2026-05-05 12:49 | 45.69586 | 19.23013 | 34958 ft | 466 kts | 140° |
| 2026-05-05 12:50 | 45.64738 | 19.29164 | 34956 ft | 466 kts | 140° |
| 2026-05-05 12:50 | 45.59887 | 19.35304 | 34957 ft | 466 kts | 140° |
| 2026-05-05 12:51 | 45.55030 | 19.41437 | 34958 ft | 467 kts | 140° |
| 2026-05-05 12:51 | 45.50176 | 19.47552 | 34956 ft | 466 kts | 140° |
| 2026-05-05 12:52 | 45.45299 | 19.53678 | 34956 ft | 468 kts | 140° |
| 2026-05-05 12:52 | 45.40415 | 19.59800 | 34957 ft | 468 kts | 140° |
| 2026-05-05 12:53 | 45.35543 | 19.65891 | 34956 ft | 469 kts | 141° |
| 2026-05-05 12:53 | 45.30653 | 19.71991 | 34950 ft | 469 kts | 141° |
| 2026-05-05 12:54 | 45.23255 | 19.81152 | 34961 ft | 469 kts | 141° |
| 2026-05-05 12:55 | 45.18312 | 19.87180 | 34966 ft | 470 kts | 141° |
| 2026-05-05 12:55 | 45.13342 | 19.93226 | 34964 ft | 470 kts | 141° |
| 2026-05-05 12:56 | 45.08395 | 19.99231 | 34973 ft | 470 kts | 141° |
| 2026-05-05 12:56 | 45.03403 | 20.05276 | 34987 ft | 471 kts | 141° |
| 2026-05-05 12:57 | 44.98448 | 20.11263 | 34987 ft | 471 kts | 141° |
| 2026-05-05 12:57 | 44.93471 | 20.17260 | 34981 ft | 471 kts | 141° |
| 2026-05-05 12:58 | 44.88461 | 20.23284 | 34981 ft | 473 kts | 141° |
| 2026-05-05 12:58 | 44.83509 | 20.29225 | 34980 ft | 474 kts | 141° |
| 2026-05-05 12:59 | 44.78503 | 20.35202 | 34985 ft | 474 kts | 140° |
| 2026-05-05 12:59 | 44.73482 | 20.41176 | 34988 ft | 475 kts | 141° |
| 2026-05-05 13:00 | 44.65880 | 20.50193 | 34990 ft | 475 kts | 140° |
| 2026-05-05 13:01 | 44.55792 | 20.62111 | 34982 ft | 475 kts | 140° |
| 2026-05-05 13:01 | 44.50850 | 20.67929 | 34979 ft | 475 kts | 141° |
| 2026-05-05 13:02 | 44.45786 | 20.73876 | 34981 ft | 477 kts | 141° |
| 2026-05-05 13:02 | 44.40690 | 20.79848 | 34975 ft | 477 kts | 141° |
| 2026-05-05 13:03 | 44.35589 | 20.85811 | 34972 ft | 477 kts | 141° |
| 2026-05-05 13:03 | 44.30512 | 20.91732 | 34970 ft | 477 kts | 141° |
| 2026-05-05 13:04 | 44.25431 | 20.97644 | 34971 ft | 477 kts | 141° |
| 2026-05-05 13:04 | 44.20334 | 21.03561 | 34976 ft | 477 kts | 141° |
| 2026-05-05 13:05 | 44.15193 | 21.09515 | 34977 ft | 478 kts | 141° |
| 2026-05-05 13:05 | 44.10102 | 21.15397 | 34978 ft | 478 kts | 140° |
| 2026-05-05 13:06 | 44.04964 | 21.21321 | 34980 ft | 477 kts | 140° |
| 2026-05-05 13:06 | 43.99873 | 21.27175 | 34975 ft | 479 kts | 140° |
| 2026-05-05 13:07 | 43.94736 | 21.33070 | 34990 ft | 479 kts | 140° |
| 2026-05-05 13:07 | 43.89583 | 21.38969 | 34996 ft | 481 kts | 140° |
| 2026-05-05 13:08 | 43.84422 | 21.44863 | 34996 ft | 481 kts | 140° |
| 2026-05-05 13:08 | 43.79234 | 21.50776 | 35006 ft | 482 kts | 140° |
| 2026-05-05 13:09 | 43.74069 | 21.56647 | 35015 ft | 482 kts | 140° |
| 2026-05-05 13:09 | 43.68934 | 21.62589 | 35013 ft | 482 kts | 135° |
| 2026-05-05 13:10 | 43.64911 | 21.69937 | 35027 ft | 480 kts | 116° |
| 2026-05-05 13:10 | 43.62760 | 21.78584 | 35035 ft | 476 kts | 97° |
| 2026-05-05 13:11 | 43.62687 | 21.87612 | 35043 ft | 468 kts | 78° |
| 2026-05-05 13:11 | 43.64666 | 21.96036 | 35048 ft | 459 kts | 58° |
| 2026-05-05 13:12 | 43.68438 | 22.02961 | 35053 ft | 448 kts | 39° |
| 2026-05-05 13:12 | 43.73530 | 22.07644 | 35047 ft | 438 kts | 20° |
| 2026-05-05 13:13 | 43.79329 | 22.09619 | 35049 ft | 430 kts | 1° |
| 2026-05-05 13:13 | 43.85190 | 22.08716 | 35038 ft | 425 kts | 341° |
| 2026-05-05 13:14 | 43.90440 | 22.05021 | 35039 ft | 425 kts | 322° |
| 2026-05-05 13:14 | 43.94426 | 21.98973 | 35039 ft | 428 kts | 303° |
| 2026-05-05 13:15 | 43.96639 | 21.91315 | 35046 ft | 431 kts | 283° |
| 2026-05-05 13:15 | 43.96790 | 21.83041 | 35053 ft | 437 kts | 264° |
| 2026-05-05 13:16 | 43.94846 | 21.75018 | 35049 ft | 440 kts | 245° |
| 2026-05-05 13:16 | 43.93186 | 21.71538 | 34958 ft | 426 kts | 234° |
| 2026-05-05 13:16 | 43.91153 | 21.68607 | 34872 ft | 426 kts | 224° |
| 2026-05-05 13:17 | 43.88702 | 21.66148 | 34812 ft | 443 kts | 214° |
| 2026-05-05 13:17 | 43.85904 | 21.64254 | 34798 ft | 456 kts | 204° |
| 2026-05-05 13:17 | 43.82852 | 21.63000 | 34841 ft | 470 kts | 195° |
| 2026-05-05 13:17 | 43.79567 | 21.62427 | 35005 ft | 474 kts | 185° |
| 2026-05-05 13:18 | 43.76314 | 21.62573 | 35011 ft | 463 kts | 175° |
| 2026-05-05 13:18 | 43.73164 | 21.63444 | 35018 ft | 459 kts | 165° |
| 2026-05-05 13:18 | 43.67389 | 21.67225 | 35030 ft | 466 kts | 146° |
| 2026-05-05 13:19 | 43.64855 | 21.70060 | 34832 ft | 470 kts | 136° |
| 2026-05-05 13:19 | 43.62686 | 21.73368 | 34303 ft | 469 kts | 127° |
| 2026-05-05 13:19 | 43.60865 | 21.77105 | 33791 ft | 466 kts | 123° |
| 2026-05-05 13:19 | 43.58924 | 21.80692 | 33277 ft | 467 kts | 128° |
| 2026-05-05 13:20 | 43.56884 | 21.84128 | 32761 ft | 468 kts | 129° |
| 2026-05-05 13:20 | 43.54784 | 21.87579 | 32241 ft | 469 kts | 129° |
| 2026-05-05 13:20 | 43.52671 | 21.91027 | 31731 ft | 471 kts | 129° |
| 2026-05-05 13:20 | 43.50558 | 21.94462 | 31208 ft | 471 kts | 129° |
| 2026-05-05 13:21 | 43.48430 | 21.97919 | 30695 ft | 471 kts | 129° |
| 2026-05-05 13:21 | 43.46349 | 22.01292 | 30182 ft | 466 kts | 129° |
| 2026-05-05 13:21 | 43.44254 | 22.04684 | 29667 ft | 461 kts | 129° |
| 2026-05-05 13:21 | 43.42187 | 22.08028 | 29157 ft | 457 kts | 129° |
| 2026-05-05 13:22 | 43.40145 | 22.11326 | 28658 ft | 453 kts | 129° |
| 2026-05-05 13:22 | 43.38113 | 22.14608 | 28152 ft | 449 kts | 129° |
| 2026-05-05 13:22 | 43.36093 | 22.17864 | 27660 ft | 446 kts | 128° |
| 2026-05-05 13:22 | 43.34088 | 22.21092 | 27169 ft | 443 kts | 128° |
| 2026-05-05 13:23 | 43.32104 | 22.24283 | 26686 ft | 440 kts | 128° |
| 2026-05-05 13:23 | 43.30109 | 22.27490 | 26193 ft | 436 kts | 128° |
| 2026-05-05 13:23 | 43.28144 | 22.30643 | 25718 ft | 433 kts | 128° |
| 2026-05-05 13:23 | 43.26203 | 22.33755 | 25242 ft | 429 kts | 128° |
| 2026-05-05 13:24 | 43.24275 | 22.36842 | 24770 ft | 427 kts | 128° |
| 2026-05-05 13:24 | 43.22337 | 22.39944 | 24303 ft | 424 kts | 128° |
| 2026-05-05 13:24 | 43.20446 | 22.42965 | 23844 ft | 421 kts | 128° |
| 2026-05-05 13:24 | 43.18533 | 22.46019 | 23386 ft | 417 kts | 128° |
| 2026-05-05 13:25 | 43.16665 | 22.48999 | 22938 ft | 413 kts | 128° |
| 2026-05-05 13:25 | 43.14810 | 22.51954 | 22492 ft | 410 kts | 128° |
| 2026-05-05 13:25 | 43.12936 | 22.54936 | 22034 ft | 407 kts | 128° |
| 2026-05-05 13:25 | 43.11100 | 22.57856 | 21587 ft | 403 kts | 128° |
| 2026-05-05 13:26 | 43.09297 | 22.60720 | 21147 ft | 399 kts | 128° |
| 2026-05-05 13:26 | 43.07499 | 22.63574 | 20710 ft | 396 kts | 128° |
| 2026-05-05 13:26 | 43.05703 | 22.66421 | 20276 ft | 391 kts | 128° |
| 2026-05-05 13:26 | 43.03928 | 22.69232 | 19842 ft | 388 kts | 128° |
| 2026-05-05 13:27 | 43.02172 | 22.72009 | 19415 ft | 384 kts | 128° |
| 2026-05-05 13:27 | 43.00444 | 22.74741 | 18992 ft | 381 kts | 128° |
| 2026-05-05 13:27 | 42.98720 | 22.77463 | 18573 ft | 377 kts | 128° |
| 2026-05-05 13:27 | 42.97019 | 22.80154 | 18163 ft | 373 kts | 128° |
| 2026-05-05 13:28 | 42.95332 | 22.82848 | 17756 ft | 371 kts | 128° |
| 2026-05-05 13:28 | 42.93655 | 22.85523 | 17354 ft | 369 kts | 128° |
| 2026-05-05 13:28 | 42.91991 | 22.88174 | 16946 ft | 368 kts | 128° |
| 2026-05-05 13:28 | 42.90319 | 22.90837 | 16539 ft | 365 kts | 128° |
| 2026-05-05 13:29 | 42.88694 | 22.93423 | 16139 ft | 362 kts | 128° |
| 2026-05-05 13:29 | 42.87060 | 22.96019 | 15747 ft | 359 kts | 128° |
| 2026-05-05 13:29 | 42.85475 | 22.98537 | 15355 ft | 357 kts | 128° |
| 2026-05-05 13:29 | 42.83836 | 23.01137 | 14952 ft | 355 kts | 128° |
| 2026-05-05 13:30 | 42.82235 | 23.03676 | 14561 ft | 352 kts | 128° |
| 2026-05-05 13:30 | 42.80624 | 23.06227 | 14172 ft | 350 kts | 128° |
| 2026-05-05 13:30 | 42.79059 | 23.08705 | 13783 ft | 347 kts | 128° |
| 2026-05-05 13:30 | 42.77486 | 23.11190 | 13401 ft | 344 kts | 128° |
| 2026-05-05 13:31 | 42.75926 | 23.13656 | 13008 ft | 342 kts | 128° |
| 2026-05-05 13:31 | 42.74357 | 23.16132 | 12628 ft | 341 kts | 128° |
| 2026-05-05 13:31 | 42.72829 | 23.18543 | 12255 ft | 339 kts | 129° |
| 2026-05-05 13:31 | 42.71298 | 23.20956 | 11880 ft | 337 kts | 129° |
| 2026-05-05 13:32 | 42.69761 | 23.23376 | 11511 ft | 331 kts | 129° |
| 2026-05-05 13:32 | 42.68289 | 23.25692 | 11162 ft | 323 kts | 129° |
| 2026-05-05 13:32 | 42.66824 | 23.27995 | 10766 ft | 316 kts | 129° |
| 2026-05-05 13:32 | 42.65417 | 23.30206 | 10422 ft | 307 kts | 129° |
| 2026-05-05 13:33 | 42.64031 | 23.32381 | 10093 ft | 299 kts | 129° |
| 2026-05-05 13:33 | 42.62687 | 23.34490 | 9770 ft | 292 kts | 129° |
| 2026-05-05 13:33 | 42.61707 | 23.36823 | 9458 ft | 286 kts | 101° |
| 2026-05-05 13:33 | 42.61445 | 23.39503 | 9153 ft | 286 kts | 94° |
| 2026-05-05 13:34 | 42.61269 | 23.42169 | 8823 ft | 285 kts | 93° |
| 2026-05-05 13:34 | 42.61100 | 23.44849 | 8506 ft | 284 kts | 93° |
| 2026-05-05 13:34 | 42.60934 | 23.47527 | 8187 ft | 282 kts | 93° |
| 2026-05-05 13:34 | 42.60772 | 23.50178 | 7872 ft | 280 kts | 93° |
| 2026-05-05 13:35 | 42.60613 | 23.52774 | 7565 ft | 279 kts | 93° |
| 2026-05-05 13:35 | 42.60451 | 23.55386 | 7261 ft | 274 kts | 93° |
| 2026-05-05 13:35 | 42.60292 | 23.57942 | 6953 ft | 267 kts | 93° |
| 2026-05-05 13:35 | 42.60139 | 23.60408 | 6653 ft | 261 kts | 93° |
| 2026-05-05 13:36 | 42.60378 | 23.62757 | 6382 ft | 251 kts | 60° |
| 2026-05-05 13:36 | 42.61550 | 23.64386 | 6093 ft | 244 kts | 26° |
| 2026-05-05 13:36 | 42.63194 | 23.64973 | 5722 ft | 241 kts | 9° |
| 2026-05-05 13:36 | 42.64822 | 23.65284 | 5440 ft | 234 kts | 8° |
| 2026-05-05 13:37 | 42.66441 | 23.65407 | 5047 ft | 227 kts | 348° |
| 2026-05-05 13:37 | 42.67664 | 23.64369 | 4907 ft | 213 kts | 309° |
| 2026-05-05 13:37 | 42.68176 | 23.62492 | 4513 ft | 215 kts | 281° |
| 2026-05-05 13:37 | 42.68383 | 23.60522 | 4291 ft | 203 kts | 279° |
| 2026-05-05 13:38 | 42.68546 | 23.58638 | 3933 ft | 198 kts | 278° |
| 2026-05-05 13:38 | 42.68683 | 23.56830 | 3632 ft | 184 kts | 277° |
| 2026-05-05 13:38 | 42.68799 | 23.55186 | 3351 ft | 167 kts | 277° |
| 2026-05-05 13:38 | 42.68898 | 23.53703 | 3111 ft | 149 kts | 277° |
| 2026-05-05 13:39 | 42.68985 | 23.52366 | 2871 ft | 136 kts | 277° |
| 2026-05-05 13:39 | 42.69183 | 23.51129 | 2667 ft | 132 kts | 297° |
| 2026-05-05 13:39 | 42.69351 | 23.49894 | 2646 ft | 137 kts | 264° |
| 2026-05-05 13:39 | 42.69230 | 23.48599 | 2302 ft | 136 kts | 277° |
| 2026-05-05 13:40 | 42.69321 | 23.47338 | 2247 ft | 133 kts | 273° |
| 2026-05-05 13:40 | 42.69378 | 23.46049 | 2060 ft | 137 kts | 275° |
| 2026-05-05 13:40 | 42.69461 | 23.44787 | 1909 ft | 135 kts | 276° |
| 2026-05-05 13:40 | 42.69538 | 23.43512 | 1764 ft | 131 kts | 275° |
| 2026-05-05 13:41 | 42.69599 | 23.42481 | 1763 ft | 86 kts | 275° |
| 2026-05-05 13:41 | 42.69632 | 23.41961 | 1763 ft | 16 kts | 273° |